sensor_id;sensor_type;location;lat;lon;timestamp;temperature;humidity
52030;DHT22;38043;53.224;6.580;2023-03-01T00:01:14;0.10;99.90
52030;DHT22;38043;53.224;6.580;2023-03-01T00:03:41;0.10;99.90
52030;DHT22;38043;53.224;6.580;2023-03-01T00:06:07;0.10;99.90
52030;DHT22;38043;53.224;6.580;2023-03-01T00:08:33;0.10;99.90
52030;DHT22;38043;53.224;6.580;2023-03-01T00:11:19;0.10;99.90
52030;DHT22;38043;53.224;6.580;2023-03-01T00:13:47;0.10;99.90
52030;DHT22;38043;53.224;6.580;2023-03-01T00:16:16;0.00;99.90
52030;DHT22;38043;53.224;6.580;2023-03-01T00:18:42;0.00;99.90
52030;DHT22;38043;53.224;6.580;2023-03-01T00:21:08;0.00;99.90
52030;DHT22;38043;53.224;6.580;2023-03-01T00:23:34;0.00;99.90
52030;DHT22;38043;53.224;6.580;2023-03-01T00:26:00;0.00;99.90
52030;DHT22;38043;53.224;6.580;2023-03-01T00:28:26;-0.10;99.90
52030;DHT22;38043;53.224;6.580;2023-03-01T00:30:52;-0.10;99.90
52030;DHT22;38043;53.224;6.580;2023-03-01T00:33:18;0.20;99.90
52030;DHT22;38043;53.224;6.580;2023-03-01T00:35:44;-0.10;99.90
52030;DHT22;38043;53.224;6.580;2023-03-01T00:38:09;-0.10;99.90
52030;DHT22;38043;53.224;6.580;2023-03-01T00:40:36;-0.20;99.90
52030;DHT22;38043;53.224;6.580;2023-03-01T00:43:02;-0.20;99.90
52030;DHT22;38043;53.224;6.580;2023-03-01T00:45:28;-0.20;99.90
52030;DHT22;38043;53.224;6.580;2023-03-01T00:47:56;-0.20;99.90
52030;DHT22;38043;53.224;6.580;2023-03-01T00:50:22;-0.20;99.90
52030;DHT22;38043;53.224;6.580;2023-03-01T00:52:55;-0.20;99.90
52030;DHT22;38043;53.224;6.580;2023-03-01T00:55:21;-0.20;99.90
52030;DHT22;38043;53.224;6.580;2023-03-01T00:57:47;-0.20;99.90
52030;DHT22;38043;53.224;6.580;2023-03-01T01:00:13;-0.30;99.90
52030;DHT22;38043;53.224;6.580;2023-03-01T01:02:38;-0.30;99.90
52030;DHT22;38043;53.224;6.580;2023-03-01T01:05:04;-0.30;99.90
52030;DHT22;38043;53.224;6.580;2023-03-01T01:07:30;-0.30;99.90
52030;DHT22;38043;53.224;6.580;2023-03-01T01:09:56;-0.30;99.90
52030;DHT22;38043;53.224;6.580;2023-03-01T01:12:21;-0.30;99.90
52030;DHT22;38043;53.224;6.580;2023-03-01T01:14:47;-0.30;99.90
52030;DHT22;38043;53.224;6.580;2023-03-01T01:17:13;-0.30;99.90
52030;DHT22;38043;53.224;6.580;2023-03-01T01:19:38;-0.40;99.90
52030;DHT22;38043;53.224;6.580;2023-03-01T01:22:04;-0.40;99.90
52030;DHT22;38043;53.224;6.580;2023-03-01T01:24:30;-0.40;99.90
52030;DHT22;38043;53.224;6.580;2023-03-01T01:26:55;-0.40;99.90
52030;DHT22;38043;53.224;6.580;2023-03-01T01:29:21;-0.40;99.90
52030;DHT22;38043;53.224;6.580;2023-03-01T01:31:47;-0.40;99.90
52030;DHT22;38043;53.224;6.580;2023-03-01T01:34:18;-0.40;99.90
52030;DHT22;38043;53.224;6.580;2023-03-01T01:36:48;-0.40;99.90
52030;DHT22;38043;53.224;6.580;2023-03-01T01:39:15;-0.50;99.90
52030;DHT22;38043;53.224;6.580;2023-03-01T01:41:41;-0.50;99.90
52030;DHT22;38043;53.224;6.580;2023-03-01T01:46:41;-0.50;99.90
52030;DHT22;38043;53.224;6.580;2023-03-01T01:49:23;-0.50;99.90
52030;DHT22;38043;53.224;6.580;2023-03-01T01:51:52;-0.50;99.90
52030;DHT22;38043;53.224;6.580;2023-03-01T01:54:23;-0.50;99.90
52030;DHT22;38043;53.224;6.580;2023-03-01T01:56:55;-0.50;99.90
52030;DHT22;38043;53.224;6.580;2023-03-01T01:59:23;-0.50;99.90
52030;DHT22;38043;53.224;6.580;2023-03-01T02:01:51;-0.60;99.90
52030;DHT22;38043;53.224;6.580;2023-03-01T02:04:17;-0.60;99.90
52030;DHT22;38043;53.224;6.580;2023-03-01T02:06:57;-0.60;99.90
52030;DHT22;38043;53.224;6.580;2023-03-01T02:09:24;-0.60;99.90
52030;DHT22;38043;53.224;6.580;2023-03-01T02:11:51;-0.60;99.90
52030;DHT22;38043;53.224;6.580;2023-03-01T02:14:17;-0.60;99.90
52030;DHT22;38043;53.224;6.580;2023-03-01T02:16:43;-0.60;99.90
52030;DHT22;38043;53.224;6.580;2023-03-01T02:19:16;-0.60;99.90
52030;DHT22;38043;53.224;6.580;2023-03-01T02:22:12;-0.70;99.90
52030;DHT22;38043;53.224;6.580;2023-03-01T02:30:32;-0.70;99.90
52030;DHT22;38043;53.224;6.580;2023-03-01T02:32:59;-0.70;99.90
52030;DHT22;38043;53.224;6.580;2023-03-01T02:35:37;-0.70;99.90
52030;DHT22;38043;53.224;6.580;2023-03-01T02:38:06;-0.70;99.90
52030;DHT22;38043;53.224;6.580;2023-03-01T02:40:34;-0.80;99.90
52030;DHT22;38043;53.224;6.580;2023-03-01T02:43:01;-0.80;99.90
52030;DHT22;38043;53.224;6.580;2023-03-01T02:45:29;-0.80;99.90
52030;DHT22;38043;53.224;6.580;2023-03-01T02:47:56;-0.80;99.90
52030;DHT22;38043;53.224;6.580;2023-03-01T02:53:27;-0.90;99.90
52030;DHT22;38043;53.224;6.580;2023-03-01T02:55:53;-0.90;99.90
52030;DHT22;38043;53.224;6.580;2023-03-01T02:58:19;-0.70;99.90
52030;DHT22;38043;53.224;6.580;2023-03-01T03:00:45;-0.90;99.90
52030;DHT22;38043;53.224;6.580;2023-03-01T03:03:19;-0.90;99.90
52030;DHT22;38043;53.224;6.580;2023-03-01T03:05:45;-0.90;99.90
52030;DHT22;38043;53.224;6.580;2023-03-01T03:08:11;-0.90;99.90
52030;DHT22;38043;53.224;6.580;2023-03-01T03:10:39;-1.00;99.90
52030;DHT22;38043;53.224;6.580;2023-03-01T03:13:13;-1.00;99.90
52030;DHT22;38043;53.224;6.580;2023-03-01T03:15:40;-0.90;99.90
52030;DHT22;38043;53.224;6.580;2023-03-01T03:18:12;-0.60;99.90
52030;DHT22;38043;53.224;6.580;2023-03-01T03:20:40;-1.00;99.90
52030;DHT22;38043;53.224;6.580;2023-03-01T03:23:06;-1.00;99.90
52030;DHT22;38043;53.224;6.580;2023-03-01T03:25:32;-1.10;99.90
52030;DHT22;38043;53.224;6.580;2023-03-01T03:27:58;-1.10;99.90
52030;DHT22;38043;53.224;6.580;2023-03-01T03:30:26;-1.10;99.90
52030;DHT22;38043;53.224;6.580;2023-03-01T03:32:52;-1.10;99.90
52030;DHT22;38043;53.224;6.580;2023-03-01T03:35:25;-1.20;99.90
52030;DHT22;38043;53.224;6.580;2023-03-01T03:37:52;-1.20;99.90
52030;DHT22;38043;53.224;6.580;2023-03-01T03:40:39;-1.20;99.90
52030;DHT22;38043;53.224;6.580;2023-03-01T03:43:07;-1.20;99.90
52030;DHT22;38043;53.224;6.580;2023-03-01T03:45:33;-1.20;99.90
52030;DHT22;38043;53.224;6.580;2023-03-01T03:48:03;-1.20;99.90
52030;DHT22;38043;53.224;6.580;2023-03-01T03:50:29;-1.20;99.90
52030;DHT22;38043;53.224;6.580;2023-03-01T03:52:55;-1.20;99.90
52030;DHT22;38043;53.224;6.580;2023-03-01T03:55:21;-1.20;99.90
52030;DHT22;38043;53.224;6.580;2023-03-01T03:57:47;-1.20;99.90
52030;DHT22;38043;53.224;6.580;2023-03-01T04:00:18;-1.20;99.90
52030;DHT22;38043;53.224;6.580;2023-03-01T04:02:44;-1.20;99.90
52030;DHT22;38043;53.224;6.580;2023-03-01T04:05:12;-1.30;99.90
52030;DHT22;38043;53.224;6.580;2023-03-01T04:07:38;-1.10;99.90
52030;DHT22;38043;53.224;6.580;2023-03-01T04:10:06;-1.30;99.90
52030;DHT22;38043;53.224;6.580;2023-03-01T04:12:33;-1.20;99.90
52030;DHT22;38043;53.224;6.580;2023-03-01T04:15:06;-1.20;99.90
52030;DHT22;38043;53.224;6.580;2023-03-01T04:17:45;-1.30;99.90
52030;DHT22;38043;53.224;6.580;2023-03-01T04:20:13;-1.20;99.90
52030;DHT22;38043;53.224;6.580;2023-03-01T04:22:40;-1.20;99.90
52030;DHT22;38043;53.224;6.580;2023-03-01T04:25:06;-1.20;99.90
52030;DHT22;38043;53.224;6.580;2023-03-01T04:27:34;-1.20;99.90
52030;DHT22;38043;53.224;6.580;2023-03-01T04:29:59;-1.20;99.90
52030;DHT22;38043;53.224;6.580;2023-03-01T04:32:25;-1.20;99.90
52030;DHT22;38043;53.224;6.580;2023-03-01T04:34:51;-1.10;99.90
52030;DHT22;38043;53.224;6.580;2023-03-01T04:37:16;-1.20;99.90
52030;DHT22;38043;53.224;6.580;2023-03-01T04:39:42;-1.30;99.90
52030;DHT22;38043;53.224;6.580;2023-03-01T04:42:19;-1.40;99.90
52030;DHT22;38043;53.224;6.580;2023-03-01T04:44:45;-1.50;99.90
52030;DHT22;38043;53.224;6.580;2023-03-01T04:47:11;-1.50;99.90
52030;DHT22;38043;53.224;6.580;2023-03-01T04:49:37;-1.60;99.90
52030;DHT22;38043;53.224;6.580;2023-03-01T04:52:04;-1.70;99.90
52030;DHT22;38043;53.224;6.580;2023-03-01T04:54:31;-1.70;99.90
52030;DHT22;38043;53.224;6.580;2023-03-01T04:56:57;-1.70;99.90
52030;DHT22;38043;53.224;6.580;2023-03-01T04:59:24;-1.80;99.90
52030;DHT22;38043;53.224;6.580;2023-03-01T05:01:50;-1.80;99.90
52030;DHT22;38043;53.224;6.580;2023-03-01T05:04:16;-1.80;99.90
52030;DHT22;38043;53.224;6.580;2023-03-01T05:06:42;-1.90;99.90
52030;DHT22;38043;53.224;6.580;2023-03-01T05:09:08;-1.90;99.90
52030;DHT22;38043;53.224;6.580;2023-03-01T05:11:34;-2.00;99.90
52030;DHT22;38043;53.224;6.580;2023-03-01T05:14:08;-1.90;99.90
52030;DHT22;38043;53.224;6.580;2023-03-01T05:16:35;-2.00;99.90
52030;DHT22;38043;53.224;6.580;2023-03-01T05:19:02;-2.00;99.90
52030;DHT22;38043;53.224;6.580;2023-03-01T05:21:37;-2.10;99.90
52030;DHT22;38043;53.224;6.580;2023-03-01T05:24:24;-2.10;99.90
52030;DHT22;38043;53.224;6.580;2023-03-01T05:26:50;-2.10;99.90
52030;DHT22;38043;53.224;6.580;2023-03-01T05:29:18;-2.10;99.90
52030;DHT22;38043;53.224;6.580;2023-03-01T05:31:54;-2.20;99.90
52030;DHT22;38043;53.224;6.580;2023-03-01T05:34:34;-2.20;99.90
52030;DHT22;38043;53.224;6.580;2023-03-01T05:37:01;-2.20;99.90
52030;DHT22;38043;53.224;6.580;2023-03-01T05:39:28;-2.20;99.90
52030;DHT22;38043;53.224;6.580;2023-03-01T05:41:59;-2.20;99.90
52030;DHT22;38043;53.224;6.580;2023-03-01T05:44:26;-2.20;99.90
52030;DHT22;38043;53.224;6.580;2023-03-01T05:46:52;-2.20;99.90
52030;DHT22;38043;53.224;6.580;2023-03-01T05:49:18;-2.20;99.90
52030;DHT22;38043;53.224;6.580;2023-03-01T05:51:48;-2.20;99.90
52030;DHT22;38043;53.224;6.580;2023-03-01T05:54:15;-2.20;99.90
52030;DHT22;38043;53.224;6.580;2023-03-01T05:56:40;-2.20;99.90
52030;DHT22;38043;53.224;6.580;2023-03-01T05:59:06;-2.20;99.90
52030;DHT22;38043;53.224;6.580;2023-03-01T06:01:32;-2.20;99.90
52030;DHT22;38043;53.224;6.580;2023-03-01T06:03:58;-2.20;99.90
52030;DHT22;38043;53.224;6.580;2023-03-01T06:06:24;-2.20;99.90
52030;DHT22;38043;53.224;6.580;2023-03-01T06:08:50;-2.20;99.90
52030;DHT22;38043;53.224;6.580;2023-03-01T06:11:15;-2.20;99.90
52030;DHT22;38043;53.224;6.580;2023-03-01T06:13:43;-2.20;99.90
52030;DHT22;38043;53.224;6.580;2023-03-01T06:16:08;-2.20;99.90
52030;DHT22;38043;53.224;6.580;2023-03-01T06:18:35;-2.20;99.90
52030;DHT22;38043;53.224;6.580;2023-03-01T06:21:01;-2.20;99.90
52030;DHT22;38043;53.224;6.580;2023-03-01T06:23:26;-2.20;99.90
52030;DHT22;38043;53.224;6.580;2023-03-01T06:25:52;-2.20;99.90
52030;DHT22;38043;53.224;6.580;2023-03-01T06:28:18;-2.20;99.90
52030;DHT22;38043;53.224;6.580;2023-03-01T06:30:44;-2.20;99.90
52030;DHT22;38043;53.224;6.580;2023-03-01T06:33:09;-2.20;99.90
52030;DHT22;38043;53.224;6.580;2023-03-01T06:35:35;-2.20;99.90
52030;DHT22;38043;53.224;6.580;2023-03-01T06:38:03;-2.20;99.90
52030;DHT22;38043;53.224;6.580;2023-03-01T06:40:29;-2.20;99.90
52030;DHT22;38043;53.224;6.580;2023-03-01T06:42:57;-2.20;99.90
52030;DHT22;38043;53.224;6.580;2023-03-01T06:45:24;-2.20;99.90
52030;DHT22;38043;53.224;6.580;2023-03-01T06:47:50;-2.10;99.90
52030;DHT22;38043;53.224;6.580;2023-03-01T06:50:16;-2.10;99.90
52030;DHT22;38043;53.224;6.580;2023-03-01T06:52:43;-2.10;99.90
52030;DHT22;38043;53.224;6.580;2023-03-01T06:55:11;-2.00;99.90
52030;DHT22;38043;53.224;6.580;2023-03-01T06:57:37;-2.00;99.90
52030;DHT22;38043;53.224;6.580;2023-03-01T07:00:04;-1.90;99.90
52030;DHT22;38043;53.224;6.580;2023-03-01T07:02:29;-1.90;99.90
52030;DHT22;38043;53.224;6.580;2023-03-01T07:04:55;-1.90;99.90
52030;DHT22;38043;53.224;6.580;2023-03-01T07:07:21;-1.90;99.90
52030;DHT22;38043;53.224;6.580;2023-03-01T07:09:48;-1.80;99.90
52030;DHT22;38043;53.224;6.580;2023-03-01T07:12:13;-1.80;99.90
52030;DHT22;38043;53.224;6.580;2023-03-01T07:14:39;-1.70;99.90
52030;DHT22;38043;53.224;6.580;2023-03-01T07:17:05;-1.70;99.90
52030;DHT22;38043;53.224;6.580;2023-03-01T07:19:30;-1.60;99.90
52030;DHT22;38043;53.224;6.580;2023-03-01T07:21:56;-1.60;99.90
52030;DHT22;38043;53.224;6.580;2023-03-01T07:24:22;-1.50;99.90
52030;DHT22;38043;53.224;6.580;2023-03-01T07:26:51;-1.40;99.90
52030;DHT22;38043;53.224;6.580;2023-03-01T07:29:17;-1.30;99.90
52030;DHT22;38043;53.224;6.580;2023-03-01T07:31:43;-1.20;99.90
52030;DHT22;38043;53.224;6.580;2023-03-01T07:34:09;-1.10;99.90
52030;DHT22;38043;53.224;6.580;2023-03-01T07:36:36;-1.00;99.90
52030;DHT22;38043;53.224;6.580;2023-03-01T07:39:02;-0.90;99.90
52030;DHT22;38043;53.224;6.580;2023-03-01T07:41:29;-0.80;99.90
52030;DHT22;38043;53.224;6.580;2023-03-01T07:43:55;-0.80;99.90
52030;DHT22;38043;53.224;6.580;2023-03-01T07:46:21;-0.60;99.90
52030;DHT22;38043;53.224;6.580;2023-03-01T07:48:46;-0.50;99.90
52030;DHT22;38043;53.224;6.580;2023-03-01T07:51:12;-0.40;99.90
52030;DHT22;38043;53.224;6.580;2023-03-01T07:53:38;-0.20;99.90
52030;DHT22;38043;53.224;6.580;2023-03-01T07:56:09;0.00;99.90
52030;DHT22;38043;53.224;6.580;2023-03-01T07:58:37;0.10;99.90
52030;DHT22;38043;53.224;6.580;2023-03-01T08:01:05;0.20;99.90
52030;DHT22;38043;53.224;6.580;2023-03-01T08:03:31;0.40;99.90
52030;DHT22;38043;53.224;6.580;2023-03-01T08:05:59;0.60;99.90
52030;DHT22;38043;53.224;6.580;2023-03-01T08:08:25;0.70;99.90
52030;DHT22;38043;53.224;6.580;2023-03-01T08:10:51;0.80;99.90
52030;DHT22;38043;53.224;6.580;2023-03-01T08:13:16;1.00;99.90
52030;DHT22;38043;53.224;6.580;2023-03-01T08:15:50;1.20;99.90
52030;DHT22;38043;53.224;6.580;2023-03-01T08:18:17;1.30;99.90
52030;DHT22;38043;53.224;6.580;2023-03-01T08:20:44;1.40;99.90
52030;DHT22;38043;53.224;6.580;2023-03-01T08:23:10;1.50;99.90
52030;DHT22;38043;53.224;6.580;2023-03-01T08:25:36;1.60;99.90
52030;DHT22;38043;53.224;6.580;2023-03-01T08:28:01;1.70;99.90
52030;DHT22;38043;53.224;6.580;2023-03-01T08:30:27;1.90;99.90
52030;DHT22;38043;53.224;6.580;2023-03-01T08:32:53;2.10;99.90
52030;DHT22;38043;53.224;6.580;2023-03-01T08:35:19;2.30;99.90
52030;DHT22;38043;53.224;6.580;2023-03-01T08:37:45;2.50;99.90
52030;DHT22;38043;53.224;6.580;2023-03-01T08:40:11;2.60;99.90
52030;DHT22;38043;53.224;6.580;2023-03-01T08:42:39;2.70;99.90
52030;DHT22;38043;53.224;6.580;2023-03-01T08:45:05;2.80;99.90
52030;DHT22;38043;53.224;6.580;2023-03-01T08:47:31;2.80;99.90
52030;DHT22;38043;53.224;6.580;2023-03-01T08:49:59;2.90;99.90
52030;DHT22;38043;53.224;6.580;2023-03-01T08:52:24;3.00;99.90
52030;DHT22;38043;53.224;6.580;2023-03-01T08:54:51;3.10;99.90
52030;DHT22;38043;53.224;6.580;2023-03-01T08:57:17;3.20;99.90
52030;DHT22;38043;53.224;6.580;2023-03-01T08:59:43;3.30;99.90
52030;DHT22;38043;53.224;6.580;2023-03-01T09:02:14;3.40;99.90
52030;DHT22;38043;53.224;6.580;2023-03-01T09:04:40;3.70;99.90
52030;DHT22;38043;53.224;6.580;2023-03-01T09:07:06;3.80;99.90
52030;DHT22;38043;53.224;6.580;2023-03-01T09:09:32;4.00;99.90
52030;DHT22;38043;53.224;6.580;2023-03-01T09:11:58;4.20;99.90
52030;DHT22;38043;53.224;6.580;2023-03-01T09:14:23;4.30;99.90
52030;DHT22;38043;53.224;6.580;2023-03-01T09:16:49;4.50;99.90
52030;DHT22;38043;53.224;6.580;2023-03-01T09:19:15;4.70;99.90
52030;DHT22;38043;53.224;6.580;2023-03-01T09:21:40;4.90;99.90
52030;DHT22;38043;53.224;6.580;2023-03-01T09:24:12;5.00;99.90
52030;DHT22;38043;53.224;6.580;2023-03-01T09:26:38;5.20;99.90
52030;DHT22;38043;53.224;6.580;2023-03-01T09:29:04;5.30;99.90
52030;DHT22;38043;53.224;6.580;2023-03-01T09:31:30;5.50;99.90
52030;DHT22;38043;53.224;6.580;2023-03-01T09:33:55;5.60;99.90
52030;DHT22;38043;53.224;6.580;2023-03-01T09:36:23;5.80;99.90
52030;DHT22;38043;53.224;6.580;2023-03-01T09:38:51;5.90;99.90
52030;DHT22;38043;53.224;6.580;2023-03-01T09:43:53;6.10;99.90
52030;DHT22;38043;53.224;6.580;2023-03-01T09:46:24;6.20;99.90
52030;DHT22;38043;53.224;6.580;2023-03-01T09:48:56;6.30;99.90
52030;DHT22;38043;53.224;6.580;2023-03-01T09:51:34;6.50;99.90
52030;DHT22;38043;53.224;6.580;2023-03-01T09:54:04;6.60;99.90
52030;DHT22;38043;53.224;6.580;2023-03-01T09:56:36;6.90;99.90
52030;DHT22;38043;53.224;6.580;2023-03-01T10:01:41;7.20;99.90
52030;DHT22;38043;53.224;6.580;2023-03-01T10:04:39;7.20;99.90
52030;DHT22;38043;53.224;6.580;2023-03-01T10:09:45;7.90;99.90
52030;DHT22;38043;53.224;6.580;2023-03-01T10:12:17;8.10;99.90
52030;DHT22;38043;53.224;6.580;2023-03-01T10:17:36;8.50;99.90
52030;DHT22;38043;53.224;6.580;2023-03-01T10:20:21;8.70;99.90
52030;DHT22;38043;53.224;6.580;2023-03-01T10:22:48;8.50;99.90
52030;DHT22;38043;53.224;6.580;2023-03-01T10:25:44;8.80;99.90
52030;DHT22;38043;53.224;6.580;2023-03-01T10:28:36;9.00;99.90
52030;DHT22;38043;53.224;6.580;2023-03-01T10:31:04;9.20;99.90
52030;DHT22;38043;53.224;6.580;2023-03-01T10:33:37;9.20;99.90
52030;DHT22;38043;53.224;6.580;2023-03-01T10:36:05;9.60;99.90
52030;DHT22;38043;53.224;6.580;2023-03-01T10:38:50;9.90;99.90
52030;DHT22;38043;53.224;6.580;2023-03-01T10:41:18;10.10;99.90
52030;DHT22;38043;53.224;6.580;2023-03-01T10:43:53;10.30;99.90
52030;DHT22;38043;53.224;6.580;2023-03-01T10:46:36;10.30;99.90
52030;DHT22;38043;53.224;6.580;2023-03-01T10:49:22;10.50;99.90
52030;DHT22;38043;53.224;6.580;2023-03-01T10:51:50;10.40;99.90
52030;DHT22;38043;53.224;6.580;2023-03-01T10:57:01;10.50;99.90
52030;DHT22;38043;53.224;6.580;2023-03-01T11:02:18;10.60;99.90
52030;DHT22;38043;53.224;6.580;2023-03-01T11:05:02;10.70;99.90
52030;DHT22;38043;53.224;6.580;2023-03-01T11:07:29;10.70;99.90
52030;DHT22;38043;53.224;6.580;2023-03-01T11:09:55;10.80;99.90
52030;DHT22;38043;53.224;6.580;2023-03-01T11:12:21;10.90;99.90
52030;DHT22;38043;53.224;6.580;2023-03-01T11:14:55;11.00;99.90
52030;DHT22;38043;53.224;6.580;2023-03-01T11:17:27;10.90;99.90
52030;DHT22;38043;53.224;6.580;2023-03-01T11:23:04;11.00;99.90
52030;DHT22;38043;53.224;6.580;2023-03-01T11:25:35;11.20;99.30
52030;DHT22;38043;53.224;6.580;2023-03-01T11:28:04;11.50;98.50
52030;DHT22;38043;53.224;6.580;2023-03-01T11:30:53;11.40;99.90
52030;DHT22;38043;53.224;6.580;2023-03-01T11:33:44;11.30;98.20
52030;DHT22;38043;53.224;6.580;2023-03-01T11:36:16;11.70;99.40
52030;DHT22;38043;53.224;6.580;2023-03-01T11:38:42;11.50;96.70
52030;DHT22;38043;53.224;6.580;2023-03-01T11:41:18;11.40;98.10
52030;DHT22;38043;53.224;6.580;2023-03-01T11:43:57;11.50;97.50
52030;DHT22;38043;53.224;6.580;2023-03-01T11:57:37;11.60;95.30
52030;DHT22;38043;53.224;6.580;2023-03-01T12:11:20;9.10;98.30
52030;DHT22;38043;53.224;6.580;2023-03-01T12:19:44;9.50;97.20
52030;DHT22;38043;53.224;6.580;2023-03-01T12:22:31;9.90;97.40
52030;DHT22;38043;53.224;6.580;2023-03-01T12:30:54;10.70;96.80
52030;DHT22;38043;53.224;6.580;2023-03-01T12:44:52;8.90;97.10
52030;DHT22;38043;53.224;6.580;2023-03-01T12:50:02;8.10;99.30
52030;DHT22;38043;53.224;6.580;2023-03-01T12:52:52;7.80;99.90
52030;DHT22;38043;53.224;6.580;2023-03-01T12:55:39;7.60;99.90
52030;DHT22;38043;53.224;6.580;2023-03-01T12:58:26;7.40;99.90
52030;DHT22;38043;53.224;6.580;2023-03-01T13:04:11;7.40;99.90
52030;DHT22;38043;53.224;6.580;2023-03-01T13:07:43;7.40;99.90
52030;DHT22;38043;53.224;6.580;2023-03-01T13:12:43;7.10;99.90
52030;DHT22;38043;53.224;6.580;2023-03-01T13:17:48;7.00;99.90
52030;DHT22;38043;53.224;6.580;2023-03-01T13:20:19;7.00;99.90
52030;DHT22;38043;53.224;6.580;2023-03-01T13:22:46;7.00;99.90
52030;DHT22;38043;53.224;6.580;2023-03-01T13:25:14;7.00;99.90
52030;DHT22;38043;53.224;6.580;2023-03-01T13:27:41;7.00;99.90
52030;DHT22;38043;53.224;6.580;2023-03-01T13:35:57;7.00;99.90
52030;DHT22;38043;53.224;6.580;2023-03-01T13:46:46;6.90;99.90
52030;DHT22;38043;53.224;6.580;2023-03-01T13:49:21;7.00;99.90
52030;DHT22;38043;53.224;6.580;2023-03-01T13:51:48;6.90;99.90
52030;DHT22;38043;53.224;6.580;2023-03-01T13:54:20;7.00;99.90
52030;DHT22;38043;53.224;6.580;2023-03-01T13:56:48;7.00;99.90
52030;DHT22;38043;53.224;6.580;2023-03-01T13:59:14;7.10;99.90
52030;DHT22;38043;53.224;6.580;2023-03-01T14:01:40;6.90;99.90
52030;DHT22;38043;53.224;6.580;2023-03-01T14:04:31;6.90;99.90
52030;DHT22;38043;53.224;6.580;2023-03-01T14:07:16;6.90;99.90
52030;DHT22;38043;53.224;6.580;2023-03-01T14:09:45;6.80;99.90
52030;DHT22;38043;53.224;6.580;2023-03-01T14:15:29;6.90;99.90
52030;DHT22;38043;53.224;6.580;2023-03-01T14:19:05;6.80;99.90
52030;DHT22;38043;53.224;6.580;2023-03-01T14:21:08;6.80;99.90
52030;DHT22;38043;53.224;6.580;2023-03-01T14:23:34;6.80;99.90
52030;DHT22;38043;53.224;6.580;2023-03-01T14:26:02;6.80;99.90
52030;DHT22;38043;53.224;6.580;2023-03-01T14:28:29;6.80;99.90
52030;DHT22;38043;53.224;6.580;2023-03-01T14:30:57;6.80;99.90
52030;DHT22;38043;53.224;6.580;2023-03-01T14:33:36;6.80;99.90
52030;DHT22;38043;53.224;6.580;2023-03-01T14:38:43;6.80;99.90
52030;DHT22;38043;53.224;6.580;2023-03-01T14:41:21;6.80;99.90
52030;DHT22;38043;53.224;6.580;2023-03-01T14:44:02;6.80;99.90
52030;DHT22;38043;53.224;6.580;2023-03-01T14:46:37;6.80;99.90
52030;DHT22;38043;53.224;6.580;2023-03-01T14:49:10;6.80;99.90
52030;DHT22;38043;53.224;6.580;2023-03-01T14:51:39;6.70;99.90
52030;DHT22;38043;53.224;6.580;2023-03-01T14:54:20;6.80;99.90
52030;DHT22;38043;53.224;6.580;2023-03-01T14:56:47;6.80;99.90
52030;DHT22;38043;53.224;6.580;2023-03-01T14:59:13;6.80;99.90
52030;DHT22;38043;53.224;6.580;2023-03-01T15:01:40;6.80;99.90
52030;DHT22;38043;53.224;6.580;2023-03-01T15:04:10;6.80;99.90
52030;DHT22;38043;53.224;6.580;2023-03-01T15:06:37;6.80;99.90
52030;DHT22;38043;53.224;6.580;2023-03-01T15:09:03;6.80;99.90
52030;DHT22;38043;53.224;6.580;2023-03-01T15:11:30;6.70;99.90
52030;DHT22;38043;53.224;6.580;2023-03-01T15:13:56;6.70;99.90
52030;DHT22;38043;53.224;6.580;2023-03-01T15:16:31;6.70;99.90
52030;DHT22;38043;53.224;6.580;2023-03-01T15:19:04;6.80;99.90
52030;DHT22;38043;53.224;6.580;2023-03-01T15:21:35;6.70;99.90
52030;DHT22;38043;53.224;6.580;2023-03-01T15:27:12;6.80;99.90
52030;DHT22;38043;53.224;6.580;2023-03-01T15:29:33;6.80;99.90
52030;DHT22;38043;53.224;6.580;2023-03-01T15:32:30;6.80;99.90
52030;DHT22;38043;53.224;6.580;2023-03-01T15:34:57;6.70;99.90
52030;DHT22;38043;53.224;6.580;2023-03-01T15:37:39;6.80;99.90
52030;DHT22;38043;53.224;6.580;2023-03-01T15:40:35;6.70;99.90
52030;DHT22;38043;53.224;6.580;2023-03-01T15:43:05;6.70;99.90
52030;DHT22;38043;53.224;6.580;2023-03-01T15:45:33;6.70;99.90
52030;DHT22;38043;53.224;6.580;2023-03-01T15:48:14;6.80;99.90
52030;DHT22;38043;53.224;6.580;2023-03-01T15:50:42;6.70;99.90
52030;DHT22;38043;53.224;6.580;2023-03-01T15:53:13;6.70;99.90
52030;DHT22;38043;53.224;6.580;2023-03-01T15:55:40;6.70;99.90
52030;DHT22;38043;53.224;6.580;2023-03-01T15:58:11;6.70;99.90
52030;DHT22;38043;53.224;6.580;2023-03-01T16:00:37;6.70;99.90
52030;DHT22;38043;53.224;6.580;2023-03-01T16:03:05;6.60;99.90
52030;DHT22;38043;53.224;6.580;2023-03-01T16:05:32;6.60;99.90
52030;DHT22;38043;53.224;6.580;2023-03-01T16:07:59;6.60;99.90
52030;DHT22;38043;53.224;6.580;2023-03-01T16:10:26;6.50;99.90
52030;DHT22;38043;53.224;6.580;2023-03-01T16:12:51;6.60;99.90
52030;DHT22;38043;53.224;6.580;2023-03-01T16:17:48;6.50;99.90
52030;DHT22;38043;53.224;6.580;2023-03-01T16:20:14;6.40;99.90
52030;DHT22;38043;53.224;6.580;2023-03-01T16:22:43;6.50;99.90
52030;DHT22;38043;53.224;6.580;2023-03-01T16:25:14;6.40;99.90
52030;DHT22;38043;53.224;6.580;2023-03-01T16:27:45;6.40;99.90
52030;DHT22;38043;53.224;6.580;2023-03-01T16:30:12;6.40;99.90
52030;DHT22;38043;53.224;6.580;2023-03-01T16:32:39;6.30;99.90
52030;DHT22;38043;53.224;6.580;2023-03-01T16:35:06;6.30;99.90
52030;DHT22;38043;53.224;6.580;2023-03-01T16:37:33;6.30;99.90
52030;DHT22;38043;53.224;6.580;2023-03-01T16:39:59;6.20;99.90
52030;DHT22;38043;53.224;6.580;2023-03-01T16:42:24;6.10;99.90
52030;DHT22;38043;53.224;6.580;2023-03-01T16:44:56;6.00;99.90
52030;DHT22;38043;53.224;6.580;2023-03-01T16:47:22;6.00;99.90
52030;DHT22;38043;53.224;6.580;2023-03-01T16:49:51;6.00;99.90
52030;DHT22;38043;53.224;6.580;2023-03-01T16:52:18;5.90;99.90
52030;DHT22;38043;53.224;6.580;2023-03-01T16:54:43;5.80;99.90
52030;DHT22;38043;53.224;6.580;2023-03-01T16:57:09;5.80;99.90
52030;DHT22;38043;53.224;6.580;2023-03-01T16:59:35;5.70;99.90
52030;DHT22;38043;53.224;6.580;2023-03-01T17:02:01;5.70;99.90
52030;DHT22;38043;53.224;6.580;2023-03-01T17:04:27;5.60;99.90
52030;DHT22;38043;53.224;6.580;2023-03-01T17:06:52;5.60;99.90
52030;DHT22;38043;53.224;6.580;2023-03-01T17:09:18;5.60;99.90
52030;DHT22;38043;53.224;6.580;2023-03-01T17:11:47;5.50;99.90
52030;DHT22;38043;53.224;6.580;2023-03-01T17:14:13;5.50;99.90
52030;DHT22;38043;53.224;6.580;2023-03-01T17:16:40;5.40;99.90
52030;DHT22;38043;53.224;6.580;2023-03-01T17:19:06;5.40;99.90
52030;DHT22;38043;53.224;6.580;2023-03-01T17:21:32;5.30;99.90
52030;DHT22;38043;53.224;6.580;2023-03-01T17:23:58;5.30;99.90
52030;DHT22;38043;53.224;6.580;2023-03-01T17:26:24;5.20;99.90
52030;DHT22;38043;53.224;6.580;2023-03-01T17:28:49;5.20;99.90
52030;DHT22;38043;53.224;6.580;2023-03-01T17:31:17;5.20;99.90
52030;DHT22;38043;53.224;6.580;2023-03-01T17:33:43;5.10;99.90
52030;DHT22;38043;53.224;6.580;2023-03-01T17:36:09;5.10;99.90
52030;DHT22;38043;53.224;6.580;2023-03-01T17:38:35;5.70;99.90
52030;DHT22;38043;53.224;6.580;2023-03-01T17:41:02;5.00;99.90
52030;DHT22;38043;53.224;6.580;2023-03-01T17:43:28;4.80;99.90